createdAt,value
2023-05-04T00:02:40.781Z,11.77
2023-05-04T00:06:23.612Z,12.00
2023-05-04T00:10:07.984Z,12.80
2023-05-04T00:13:52.366Z,12.67
2023-05-04T00:17:35.097Z,12.80
2023-05-04T00:21:17.909Z,12.80
2023-05-04T00:25:00.641Z,13.73
2023-05-04T00:28:43.333Z,14.07
2023-05-04T00:32:27.688Z,13.30
2023-05-04T00:36:10.801Z,14.17
2023-05-04T00:39:53.631Z,14.50
2023-05-04T00:43:36.358Z,14.93
2023-05-04T00:47:19.956Z,14.43
2023-05-04T00:51:04.214Z,14.60
2023-05-04T00:54:47.903Z,13.67
2023-05-04T00:58:30.929Z,14.00
2023-05-04T01:02:13.708Z,13.67
2023-05-04T01:06:05.916Z,13.20
2023-05-04T01:09:52.132Z,12.73
2023-05-04T01:13:36.092Z,14.37
2023-05-04T01:17:18.801Z,13.17
2023-05-04T01:21:01.493Z,13.47
2023-05-04T01:24:45.718Z,14.17
2023-05-04T01:28:34.619Z,13.30
2023-05-04T01:32:19.161Z,13.23
2023-05-04T01:36:02.273Z,13.37
2023-05-04T01:39:46.381Z,14.33
2023-05-04T01:43:29.150Z,14.70
2023-05-04T01:47:11.947Z,14.20
2023-05-04T01:50:55.676Z,14.50
2023-05-04T01:54:38.472Z,13.63
2023-05-04T01:58:22.730Z,13.80
2023-05-04T02:02:05.611Z,14.63
2023-05-04T02:05:48.309Z,14.10
2023-05-04T02:09:31.780Z,14.20
2023-05-04T02:13:14.521Z,13.87
2023-05-04T02:16:58.893Z,14.70
2023-05-04T02:20:41.921Z,14.30
2023-05-04T02:24:24.696Z,15.30
2023-05-04T02:28:07.488Z,14.97
2023-05-04T02:31:50.567Z,14.87
2023-05-04T02:35:34.664Z,14.93
2023-05-04T02:39:17.493Z,14.77
2023-05-04T02:43:00.270Z,14.70
2023-05-04T02:46:44.083Z,15.10
2023-05-04T02:50:26.733Z,14.97
2023-05-04T02:54:10.752Z,14.83
2023-05-04T02:57:53.419Z,16.00
2023-05-04T03:01:36.220Z,15.90
2023-05-04T03:05:18.928Z,15.47
2023-05-04T03:09:01.910Z,16.10
2023-05-04T03:12:46.358Z,16.10
2023-05-04T03:16:29.210Z,17.07
2023-05-04T03:20:14.063Z,16.67
2023-05-04T03:23:59.329Z,17.17
2023-05-04T03:27:42.077Z,15.87
2023-05-04T03:31:26.278Z,16.67
2023-05-04T03:35:09.805Z,16.80
2023-05-04T03:38:52.491Z,16.17
2023-05-04T03:42:35.178Z,17.00
2023-05-04T03:46:17.886Z,15.93
2023-05-04T03:50:02.606Z,17.70
2023-05-04T03:53:45.711Z,17.23
2023-05-04T03:57:28.469Z,17.60
2023-05-04T04:01:11.132Z,16.23
2023-05-04T04:04:53.795Z,16.30
2023-05-04T04:08:37.899Z,17.00
2023-05-04T04:12:20.855Z,17.90
2023-05-04T04:16:03.663Z,16.63
2023-05-04T04:19:46.382Z,16.90
2023-05-04T04:23:29.133Z,16.40
2023-05-04T04:27:13.732Z,18.47
2023-05-04T04:30:56.758Z,17.83
2023-05-04T04:34:39.765Z,18.47
2023-05-04T04:38:22.443Z,16.53
2023-05-04T04:42:05.116Z,16.77
2023-05-04T04:45:49.513Z,17.27
2023-05-04T04:49:32.276Z,16.20
2023-05-04T04:53:14.900Z,17.50
2023-05-04T04:57:00.587Z,15.90
2023-05-04T05:00:45.310Z,17.53
2023-05-04T05:04:29.663Z,15.70
2023-05-04T05:08:12.337Z,16.63
2023-05-04T05:11:55.014Z,15.60
2023-05-04T05:15:37.696Z,16.17
2023-05-04T05:19:20.515Z,15.80
2023-05-04T05:23:05.341Z,17.40
2023-05-04T05:26:48.338Z,17.27
2023-05-04T05:30:31.292Z,16.70
2023-05-04T05:34:14.008Z,14.97
2023-05-04T05:37:57.060Z,14.67
2023-05-04T05:41:41.242Z,14.83
2023-05-04T05:45:24.164Z,14.40
2023-05-04T05:49:07.438Z,13.87
2023-05-04T05:52:50.311Z,15.77
2023-05-04T05:56:32.984Z,13.93
2023-05-04T06:00:18.637Z,14.43
2023-05-04T06:04:04.061Z,15.00
2023-05-04T06:07:47.065Z,14.27
2023-05-04T06:11:29.771Z,13.70
2023-05-04T06:15:14.412Z,13.47
2023-05-04T06:18:58.418Z,13.10
2023-05-04T06:22:41.165Z,13.70
2023-05-04T06:26:23.827Z,13.20
2023-05-04T06:30:08.162Z,13.13
2023-05-04T06:33:51.181Z,13.40
2023-05-04T06:37:35.446Z,13.27
2023-05-04T06:41:18.227Z,13.07
2023-05-04T06:45:01.125Z,12.37
2023-05-04T06:48:43.813Z,12.37
2023-05-04T06:52:29.582Z,12.47
2023-05-04T06:56:13.690Z,11.87
2023-05-04T06:59:56.384Z,11.37
2023-05-04T07:03:39.326Z,10.20
2023-05-04T07:07:22.199Z,10.43
2023-05-04T07:11:05.480Z,10.13
2023-05-04T07:14:49.769Z,9.50
2023-05-04T07:18:32.572Z,9.53
2023-05-04T07:22:15.251Z,9.77
2023-05-04T07:25:57.957Z,8.93
2023-05-04T07:29:41.681Z,8.57
2023-05-04T07:33:26.628Z,8.37
2023-05-04T07:37:09.798Z,8.73
2023-05-04T07:40:52.744Z,7.50
2023-05-04T07:44:35.536Z,7.53
2023-05-04T07:48:18.292Z,7.73
2023-05-04T07:52:02.403Z,7.67
2023-05-04T07:55:45.138Z,7.30
2023-05-04T07:59:27.806Z,7.57
2023-05-04T08:03:11.054Z,7.90
2023-05-04T08:06:53.877Z,7.60
2023-05-04T08:10:38.748Z,7.40
2023-05-04T08:14:21.870Z,6.90
2023-05-04T08:18:04.640Z,6.33
2023-05-04T08:21:47.437Z,6.70
2023-05-04T08:25:30.090Z,6.23
2023-05-04T08:29:14.244Z,6.13
2023-05-04T08:33:00.409Z,5.53
2023-05-04T08:36:43.159Z,5.67
2023-05-04T08:40:25.860Z,5.70
2023-05-04T08:44:10.119Z,5.07
2023-05-04T08:47:54.297Z,5.30
2023-05-04T08:51:37.454Z,5.30
2023-05-04T08:55:20.886Z,5.30
2023-05-04T08:59:03.919Z,4.40
2023-05-04T09:02:47.124Z,4.83
2023-05-04T09:06:32.592Z,4.53
2023-05-04T09:10:15.399Z,4.50
2023-05-04T09:13:58.317Z,4.73
2023-05-04T09:17:50.934Z,4.97
2023-05-04T09:21:41.319Z,4.47
2023-05-04T09:25:24.419Z,4.77
2023-05-04T09:29:13.875Z,4.47
2023-05-04T09:32:57.246Z,4.70
2023-05-04T09:36:42.117Z,4.00
2023-05-04T09:40:32.562Z,4.50
2023-05-04T09:44:22.462Z,4.33
2023-05-04T09:48:16.298Z,4.10
2023-05-04T09:52:02.509Z,4.60
2023-05-04T09:55:46.833Z,4.00
2023-05-04T09:59:30.496Z,4.50
2023-05-04T10:03:14.367Z,4.60
2023-05-04T10:06:57.185Z,4.87
2023-05-04T10:10:41.404Z,5.17
2023-05-04T10:14:25.066Z,4.47
2023-05-04T10:18:16.528Z,4.83
2023-05-04T10:22:09.221Z,4.47
2023-05-04T10:26:30.298Z,4.60
2023-05-04T10:30:16.813Z,4.57
2023-05-04T10:33:59.530Z,4.40
2023-05-04T10:37:51.832Z,4.00
2023-05-04T10:41:34.537Z,4.17
2023-05-04T10:45:18.840Z,4.50
2023-05-04T10:49:01.700Z,4.33
2023-05-04T10:52:47.977Z,4.60
2023-05-04T10:56:31.168Z,4.67
2023-05-04T11:00:15.085Z,5.00
2023-05-04T11:03:59.620Z,4.53
2023-05-04T11:07:42.336Z,4.23
2023-05-04T11:11:25.396Z,4.20
2023-05-04T11:15:09.317Z,3.90
2023-05-04T11:18:52.082Z,4.50
2023-05-04T11:22:36.190Z,4.17
2023-05-04T11:26:18.939Z,4.20
2023-05-04T11:30:03.044Z,4.53
2023-05-04T11:33:48.071Z,3.83
2023-05-04T11:37:30.944Z,4.27
2023-05-04T11:41:15.053Z,3.80
2023-05-04T11:44:57.846Z,5.10
2023-05-04T11:48:40.956Z,4.20
2023-05-04T11:52:24.218Z,5.07
2023-05-04T11:56:08.767Z,5.37
2023-05-04T11:59:52.826Z,4.63
2023-05-04T12:03:48.608Z,4.30
2023-05-04T12:07:37.846Z,5.73
2023-05-04T12:11:25.911Z,4.30
2023-05-04T12:15:11.333Z,4.67
2023-05-04T12:19:02.891Z,5.30
2023-05-04T12:22:45.878Z,6.13
2023-05-04T12:26:28.872Z,4.43
2023-05-04T12:30:14.164Z,4.17
2023-05-04T12:33:56.859Z,4.60
2023-05-04T12:37:39.575Z,3.80
2023-05-04T12:41:22.554Z,3.58
2023-05-04T12:45:06.521Z,3.80
2023-05-04T12:48:50.779Z,3.42
2023-05-04T12:52:33.533Z,4.63
2023-05-04T12:56:16.293Z,3.22
2023-05-04T12:59:59.169Z,4.05
2023-05-04T13:03:42.071Z,3.63
2023-05-04T13:07:26.351Z,5.78
2023-05-04T13:11:09.012Z,3.70
2023-05-04T13:14:55.332Z,4.15
2023-05-04T13:18:38.217Z,4.50
2023-05-04T13:22:20.905Z,4.07
2023-05-04T13:26:05.020Z,4.45
2023-05-04T13:29:47.722Z,4.05
2023-05-04T13:33:31.049Z,4.57
2023-05-04T13:37:18.165Z,4.03
2023-05-04T13:41:00.903Z,4.10
2023-05-04T13:44:45.662Z,3.70
2023-05-04T13:48:28.363Z,4.20
2023-05-04T13:52:11.532Z,3.97
2023-05-04T13:55:54.149Z,3.42
2023-05-04T13:59:36.771Z,4.30
2023-05-04T14:03:20.890Z,4.80
2023-05-04T14:07:03.921Z,4.25
2023-05-04T14:10:46.615Z,3.70
2023-05-04T14:14:29.720Z,3.50
2023-05-04T14:18:12.903Z,3.70
2023-05-04T14:21:56.937Z,3.72
2023-05-04T14:25:41.983Z,3.67
2023-05-04T14:29:24.709Z,3.38
2023-05-04T14:33:07.412Z,3.45
2023-05-04T14:36:51.721Z,4.40
2023-05-04T14:40:37.008Z,4.60
2023-05-04T14:44:22.524Z,3.55
2023-05-04T14:48:05.840Z,4.25
2023-05-04T14:51:49.086Z,4.75
2023-05-04T14:55:33.481Z,4.28
2023-05-04T14:59:19.659Z,4.15
2023-05-04T15:03:02.584Z,3.70
2023-05-04T15:06:45.368Z,3.55
2023-05-04T15:10:28.040Z,3.92
2023-05-04T15:14:10.692Z,4.25
2023-05-04T15:17:54.831Z,3.58
2023-05-04T15:21:37.569Z,4.03
2023-05-04T15:25:23.317Z,4.30
2023-05-04T15:29:06.991Z,4.35
2023-05-04T15:32:49.734Z,4.60
2023-05-04T15:36:33.766Z,3.47
2023-05-04T15:40:16.452Z,3.70
2023-05-04T15:43:59.580Z,4.00
2023-05-04T15:47:42.378Z,3.80
2023-05-04T15:51:25.074Z,4.15
2023-05-04T15:55:24.460Z,3.53
2023-05-04T15:59:08.284Z,4.13
2023-05-04T16:02:51.019Z,3.42
2023-05-04T16:06:33.707Z,3.80
2023-05-04T16:10:17.818Z,3.60
2023-05-04T16:14:00.484Z,3.33
2023-05-04T16:17:43.194Z,3.55
2023-05-04T16:21:25.974Z,3.40
2023-05-04T16:25:11.228Z,3.08
2023-05-04T16:28:56.620Z,2.80
2023-05-04T16:32:39.416Z,3.67
2023-05-04T16:36:22.128Z,4.10
2023-05-04T16:40:13.503Z,3.70
2023-05-04T16:43:57.532Z,3.30
2023-05-04T16:47:40.222Z,3.45
2023-05-04T16:51:23.028Z,3.80
2023-05-04T16:55:09.029Z,3.28
2023-05-04T16:58:53.434Z,3.80
2023-05-04T17:02:37.691Z,3.67
2023-05-04T17:06:20.468Z,4.35
2023-05-04T17:10:06.925Z,3.72
2023-05-04T17:13:49.741Z,4.00
2023-05-04T17:17:32.476Z,3.65
2023-05-04T17:21:16.610Z,3.80
2023-05-04T17:24:59.275Z,6.25
2023-05-04T17:28:42.024Z,3.90
2023-05-04T17:32:24.757Z,3.95
2023-05-04T17:36:08.159Z,4.05
2023-05-04T17:39:52.218Z,3.40
2023-05-04T17:43:34.916Z,3.75
2023-05-04T17:47:17.569Z,4.00
2023-05-04T17:51:00.651Z,3.10
2023-05-04T17:54:43.314Z,4.13
2023-05-04T17:58:27.381Z,7.95
2023-05-04T18:02:10.073Z,5.88
2023-05-04T18:05:52.783Z,5.05
2023-05-04T18:09:35.442Z,4.70
2023-05-04T18:13:18.271Z,4.55
2023-05-04T18:17:02.472Z,4.75
2023-05-04T18:20:45.233Z,4.25
2023-05-04T18:24:27.904Z,6.03
2023-05-04T18:28:10.630Z,6.50
2023-05-04T18:31:53.369Z,6.90
2023-05-04T18:35:37.423Z,4.38
2023-05-04T18:39:20.299Z,4.32
2023-05-04T18:43:03.039Z,4.20
2023-05-04T18:46:46.094Z,4.40
2023-05-04T18:50:28.793Z,3.90
2023-05-04T18:54:14.881Z,4.90
2023-05-04T18:57:57.648Z,5.18
2023-05-04T19:01:40.447Z,4.55
2023-05-04T19:05:23.288Z,4.22
2023-05-04T19:09:07.959Z,6.97
2023-05-04T19:12:53.197Z,4.22
2023-05-04T19:16:35.947Z,4.20
2023-05-04T19:20:19.467Z,4.23
2023-05-04T19:24:02.319Z,4.25
2023-05-04T19:27:45.622Z,4.30
2023-05-04T19:31:30.139Z,4.18
2023-05-04T19:35:14.365Z,4.90
2023-05-04T19:38:57.373Z,5.70
2023-05-04T19:42:46.111Z,5.00
2023-05-04T19:46:31.952Z,4.88
2023-05-04T19:50:16.359Z,4.35
2023-05-04T19:53:59.222Z,4.53
2023-05-04T19:57:41.923Z,4.87
2023-05-04T20:01:25.085Z,4.77
2023-05-04T20:05:09.776Z,5.40
2023-05-04T20:08:53.860Z,4.10
2023-05-04T20:12:36.630Z,5.37
2023-05-04T20:16:19.552Z,5.57
2023-05-04T20:20:03.769Z,4.40
2023-05-04T20:23:47.796Z,4.00
2023-05-04T20:27:30.687Z,3.90
2023-05-04T20:31:13.377Z,5.63
2023-05-04T20:34:56.148Z,5.73
2023-05-04T20:38:39.809Z,4.10
2023-05-04T20:42:23.871Z,3.63
2023-05-04T20:46:06.733Z,4.33
2023-05-04T20:49:49.483Z,5.17
2023-05-04T20:53:36.357Z,4.20
2023-05-04T20:57:19.087Z,4.30
2023-05-04T21:01:05.257Z,5.60
2023-05-04T21:04:48.642Z,5.20
2023-05-04T21:08:31.365Z,4.10
2023-05-04T21:12:14.273Z,4.20
2023-05-04T21:15:59.571Z,4.13
2023-05-04T21:19:43.723Z,4.43
2023-05-04T21:23:26.455Z,4.60
2023-05-04T21:27:09.142Z,3.73
2023-05-04T21:30:51.981Z,4.10
2023-05-04T21:34:34.682Z,4.20
2023-05-04T21:38:21.167Z,4.43
2023-05-04T21:42:05.087Z,4.30
2023-05-04T21:45:47.828Z,4.20
2023-05-04T21:49:30.487Z,4.40
2023-05-04T21:53:13.150Z,4.80
2023-05-04T21:56:57.230Z,4.67
2023-05-04T22:00:39.993Z,4.43
2023-05-04T22:04:22.858Z,4.20
2023-05-04T22:08:05.558Z,4.90
2023-05-04T22:11:48.552Z,4.97
2023-05-04T22:15:46.389Z,6.20
2023-05-04T22:19:32.432Z,4.90
2023-05-04T22:23:15.187Z,5.07
2023-05-04T22:27:00.321Z,4.90
2023-05-04T22:30:44.552Z,5.47
2023-05-04T22:34:27.505Z,5.43
2023-05-04T22:38:10.906Z,5.97
2023-05-04T22:41:53.795Z,5.07
2023-05-04T22:45:40.220Z,5.20
2023-05-04T22:49:24.376Z,5.37
2023-05-04T22:53:07.272Z,4.63
2023-05-04T22:56:51.024Z,4.70
2023-05-04T23:00:33.748Z,5.30
2023-05-04T23:04:19.120Z,5.10
2023-05-04T23:08:03.737Z,4.83
2023-05-04T23:11:48.543Z,4.70
2023-05-04T23:15:32.722Z,5.17
2023-05-04T23:19:15.359Z,5.20
2023-05-04T23:22:58.215Z,5.17
2023-05-04T23:26:42.238Z,4.93
2023-05-04T23:30:24.884Z,5.23
2023-05-04T23:34:07.713Z,5.10
2023-05-04T23:37:50.399Z,4.50
2023-05-04T23:41:33.267Z,5.90
2023-05-04T23:45:17.438Z,5.80
2023-05-04T23:49:00.119Z,4.90
2023-05-04T23:52:42.812Z,5.50
2023-05-04T23:56:25.450Z,5.13
